sensor_id;sensor_type;location;lat;lon;timestamp;P1;durP1;ratioP1;P2;durP2;ratioP2
54795;SDS011;40693;43.884;20.340;2024-02-21T00:00:38;181.68;;;111.18;;
54795;SDS011;40693;43.884;20.340;2024-02-21T00:03:05;158.13;;;98.40;;
54795;SDS011;40693;43.884;20.340;2024-02-21T00:05:31;158.02;;;102.05;;
54795;SDS011;40693;43.884;20.340;2024-02-21T00:07:58;141.43;;;88.90;;
54795;SDS011;40693;43.884;20.340;2024-02-21T00:10:24;123.57;;;80.65;;
54795;SDS011;40693;43.884;20.340;2024-02-21T00:12:50;118.65;;;72.88;;
54795;SDS011;40693;43.884;20.340;2024-02-21T00:15:17;102.47;;;67.65;;
54795;SDS011;40693;43.884;20.340;2024-02-21T00:17:45;97.00;;;62.63;;
54795;SDS011;40693;43.884;20.340;2024-02-21T00:20:11;87.97;;;60.70;;
54795;SDS011;40693;43.884;20.340;2024-02-21T00:22:37;95.30;;;62.30;;
54795;SDS011;40693;43.884;20.340;2024-02-21T00:25:03;101.50;;;62.67;;
54795;SDS011;40693;43.884;20.340;2024-02-21T00:27:29;85.05;;;56.42;;
54795;SDS011;40693;43.884;20.340;2024-02-21T00:29:55;81.07;;;54.60;;
54795;SDS011;40693;43.884;20.340;2024-02-21T00:32:20;94.68;;;57.45;;
54795;SDS011;40693;43.884;20.340;2024-02-21T00:34:46;81.25;;;52.25;;
54795;SDS011;40693;43.884;20.340;2024-02-21T00:37:12;81.43;;;51.03;;
54795;SDS011;40693;43.884;20.340;2024-02-21T00:39:37;71.57;;;46.45;;
54795;SDS011;40693;43.884;20.340;2024-02-21T00:42:03;99.50;;;57.78;;
54795;SDS011;40693;43.884;20.340;2024-02-21T00:44:29;86.93;;;53.00;;
54795;SDS011;40693;43.884;20.340;2024-02-21T00:46:55;108.10;;;58.47;;
54795;SDS011;40693;43.884;20.340;2024-02-21T00:49:21;99.63;;;58.47;;
54795;SDS011;40693;43.884;20.340;2024-02-21T00:51:47;97.97;;;57.67;;
54795;SDS011;40693;43.884;20.340;2024-02-21T00:54:13;85.63;;;51.50;;
54795;SDS011;40693;43.884;20.340;2024-02-21T00:56:39;101.15;;;62.08;;
54795;SDS011;40693;43.884;20.340;2024-02-21T00:59:05;98.97;;;59.63;;
54795;SDS011;40693;43.884;20.340;2024-02-21T01:01:31;82.18;;;52.92;;
54795;SDS011;40693;43.884;20.340;2024-02-21T01:03:56;92.07;;;59.42;;
54795;SDS011;40693;43.884;20.340;2024-02-21T01:06:22;96.30;;;61.60;;
54795;SDS011;40693;43.884;20.340;2024-02-21T01:08:48;95.00;;;57.33;;
54795;SDS011;40693;43.884;20.340;2024-02-21T01:11:15;91.32;;;57.15;;
54795;SDS011;40693;43.884;20.340;2024-02-21T01:13:41;100.90;;;57.50;;
54795;SDS011;40693;43.884;20.340;2024-02-21T01:16:07;85.32;;;56.33;;
54795;SDS011;40693;43.884;20.340;2024-02-21T01:18:33;99.72;;;59.53;;
54795;SDS011;40693;43.884;20.340;2024-02-21T01:20:59;95.57;;;55.30;;
54795;SDS011;40693;43.884;20.340;2024-02-21T01:23:25;76.65;;;49.28;;
54795;SDS011;40693;43.884;20.340;2024-02-21T01:25:52;61.97;;;44.15;;
54795;SDS011;40693;43.884;20.340;2024-02-21T01:28:19;69.50;;;40.92;;
54795;SDS011;40693;43.884;20.340;2024-02-21T01:30:44;70.50;;;42.92;;
54795;SDS011;40693;43.884;20.340;2024-02-21T01:33:10;68.90;;;45.92;;
54795;SDS011;40693;43.884;20.340;2024-02-21T01:35:36;74.95;;;44.03;;
54795;SDS011;40693;43.884;20.340;2024-02-21T01:38:02;73.90;;;48.30;;
54795;SDS011;40693;43.884;20.340;2024-02-21T01:40:28;69.50;;;46.40;;
54795;SDS011;40693;43.884;20.340;2024-02-21T01:42:56;78.38;;;47.00;;
54795;SDS011;40693;43.884;20.340;2024-02-21T01:45:22;61.92;;;42.72;;
54795;SDS011;40693;43.884;20.340;2024-02-21T01:47:48;63.20;;;38.95;;
54795;SDS011;40693;43.884;20.340;2024-02-21T01:50:15;56.88;;;34.45;;
54795;SDS011;40693;43.884;20.340;2024-02-21T01:52:42;52.30;;;32.58;;
54795;SDS011;40693;43.884;20.340;2024-02-21T01:55:11;55.63;;;38.13;;
54795;SDS011;40693;43.884;20.340;2024-02-21T01:57:39;49.38;;;33.67;;
54795;SDS011;40693;43.884;20.340;2024-02-21T02:00:06;47.28;;;30.52;;
54795;SDS011;40693;43.884;20.340;2024-02-21T02:02:33;43.35;;;27.83;;
54795;SDS011;40693;43.884;20.340;2024-02-21T02:04:59;46.17;;;30.08;;
54795;SDS011;40693;43.884;20.340;2024-02-21T02:07:26;48.20;;;28.98;;
54795;SDS011;40693;43.884;20.340;2024-02-21T02:09:52;44.28;;;28.77;;
54795;SDS011;40693;43.884;20.340;2024-02-21T02:12:17;44.30;;;28.33;;
54795;SDS011;40693;43.884;20.340;2024-02-21T02:14:43;48.70;;;28.90;;
54795;SDS011;40693;43.884;20.340;2024-02-21T02:17:09;43.60;;;28.02;;
54795;SDS011;40693;43.884;20.340;2024-02-21T02:19:35;46.85;;;31.95;;
54795;SDS011;40693;43.884;20.340;2024-02-21T02:22:05;49.40;;;29.90;;
54795;SDS011;40693;43.884;20.340;2024-02-21T02:24:38;48.42;;;29.85;;
54795;SDS011;40693;43.884;20.340;2024-02-21T02:27:04;44.45;;;29.42;;
54795;SDS011;40693;43.884;20.340;2024-02-21T02:29:31;44.08;;;29.73;;
54795;SDS011;40693;43.884;20.340;2024-02-21T02:31:57;46.22;;;28.95;;
54795;SDS011;40693;43.884;20.340;2024-02-21T02:34:23;44.00;;;29.15;;
54795;SDS011;40693;43.884;20.340;2024-02-21T02:36:49;42.20;;;29.58;;
54795;SDS011;40693;43.884;20.340;2024-02-21T02:39:15;51.28;;;33.05;;
54795;SDS011;40693;43.884;20.340;2024-02-21T02:41:41;57.55;;;36.72;;
54795;SDS011;40693;43.884;20.340;2024-02-21T02:44:06;54.97;;;34.50;;
54795;SDS011;40693;43.884;20.340;2024-02-21T02:46:32;47.72;;;29.30;;
54795;SDS011;40693;43.884;20.340;2024-02-21T02:48:59;47.50;;;30.40;;
54795;SDS011;40693;43.884;20.340;2024-02-21T02:51:24;46.17;;;29.58;;
54795;SDS011;40693;43.884;20.340;2024-02-21T02:53:50;37.60;;;24.33;;
54795;SDS011;40693;43.884;20.340;2024-02-21T02:56:16;40.03;;;26.50;;
54795;SDS011;40693;43.884;20.340;2024-02-21T02:58:44;40.78;;;28.80;;
54795;SDS011;40693;43.884;20.340;2024-02-21T03:01:11;45.05;;;28.98;;
54795;SDS011;40693;43.884;20.340;2024-02-21T03:03:36;47.28;;;30.85;;
54795;SDS011;40693;43.884;20.340;2024-02-21T03:06:02;48.00;;;29.10;;
54795;SDS011;40693;43.884;20.340;2024-02-21T03:08:29;44.13;;;28.67;;
54795;SDS011;40693;43.884;20.340;2024-02-21T03:10:55;40.80;;;24.67;;
54795;SDS011;40693;43.884;20.340;2024-02-21T03:13:20;46.90;;;29.25;;
54795;SDS011;40693;43.884;20.340;2024-02-21T03:15:46;48.47;;;31.30;;
54795;SDS011;40693;43.884;20.340;2024-02-21T03:18:12;44.25;;;30.92;;
54795;SDS011;40693;43.884;20.340;2024-02-21T03:20:38;37.53;;;24.02;;
54795;SDS011;40693;43.884;20.340;2024-02-21T03:23:03;43.30;;;25.35;;
54795;SDS011;40693;43.884;20.340;2024-02-21T03:25:29;38.20;;;24.60;;
54795;SDS011;40693;43.884;20.340;2024-02-21T03:27:55;35.65;;;24.40;;
54795;SDS011;40693;43.884;20.340;2024-02-21T03:30:21;39.25;;;25.48;;
54795;SDS011;40693;43.884;20.340;2024-02-21T03:32:46;35.17;;;22.85;;
54795;SDS011;40693;43.884;20.340;2024-02-21T03:35:12;38.00;;;25.25;;
54795;SDS011;40693;43.884;20.340;2024-02-21T03:37:38;33.10;;;22.95;;
54795;SDS011;40693;43.884;20.340;2024-02-21T03:40:08;33.45;;;24.13;;
54795;SDS011;40693;43.884;20.340;2024-02-21T03:42:34;34.25;;;23.00;;
54795;SDS011;40693;43.884;20.340;2024-02-21T03:45:00;39.75;;;22.20;;
54795;SDS011;40693;43.884;20.340;2024-02-21T03:47:26;35.67;;;23.42;;
54795;SDS011;40693;43.884;20.340;2024-02-21T03:49:51;32.40;;;22.52;;
54795;SDS011;40693;43.884;20.340;2024-02-21T03:52:17;30.95;;;21.48;;
54795;SDS011;40693;43.884;20.340;2024-02-21T03:54:43;31.02;;;21.02;;
54795;SDS011;40693;43.884;20.340;2024-02-21T03:57:09;36.95;;;23.98;;
54795;SDS011;40693;43.884;20.340;2024-02-21T03:59:35;39.55;;;25.60;;
54795;SDS011;40693;43.884;20.340;2024-02-21T04:02:01;52.97;;;38.10;;
54795;SDS011;40693;43.884;20.340;2024-02-21T04:04:29;57.20;;;39.05;;
54795;SDS011;40693;43.884;20.340;2024-02-21T04:06:54;61.28;;;42.17;;
54795;SDS011;40693;43.884;20.340;2024-02-21T04:09:20;69.05;;;46.45;;
54795;SDS011;40693;43.884;20.340;2024-02-21T04:11:46;61.97;;;43.25;;
54795;SDS011;40693;43.884;20.340;2024-02-21T04:14:12;61.08;;;38.60;;
54795;SDS011;40693;43.884;20.340;2024-02-21T04:16:38;55.45;;;36.55;;
54795;SDS011;40693;43.884;20.340;2024-02-21T04:19:04;59.75;;;39.38;;
54795;SDS011;40693;43.884;20.340;2024-02-21T04:21:30;63.83;;;43.63;;
54795;SDS011;40693;43.884;20.340;2024-02-21T04:23:56;83.68;;;50.47;;
54795;SDS011;40693;43.884;20.340;2024-02-21T04:26:21;90.70;;;55.10;;
54795;SDS011;40693;43.884;20.340;2024-02-21T04:28:47;71.78;;;45.45;;
54795;SDS011;40693;43.884;20.340;2024-02-21T04:31:13;78.82;;;49.92;;
54795;SDS011;40693;43.884;20.340;2024-02-21T04:33:39;68.40;;;43.47;;
54795;SDS011;40693;43.884;20.340;2024-02-21T04:36:04;68.10;;;42.95;;
54795;SDS011;40693;43.884;20.340;2024-02-21T04:38:30;64.03;;;43.25;;
54795;SDS011;40693;43.884;20.340;2024-02-21T04:40:56;68.15;;;43.17;;
54795;SDS011;40693;43.884;20.340;2024-02-21T04:43:24;55.55;;;38.53;;
54795;SDS011;40693;43.884;20.340;2024-02-21T04:45:50;54.38;;;37.88;;
54795;SDS011;40693;43.884;20.340;2024-02-21T04:48:16;56.13;;;36.88;;
54795;SDS011;40693;43.884;20.340;2024-02-21T04:50:41;71.35;;;46.85;;
54795;SDS011;40693;43.884;20.340;2024-02-21T04:53:07;79.60;;;48.80;;
54795;SDS011;40693;43.884;20.340;2024-02-21T04:55:33;91.60;;;51.90;;
54795;SDS011;40693;43.884;20.340;2024-02-21T04:57:59;90.00;;;53.47;;
54795;SDS011;40693;43.884;20.340;2024-02-21T05:00:27;82.38;;;52.30;;
54795;SDS011;40693;43.884;20.340;2024-02-21T05:02:53;86.93;;;51.92;;
54795;SDS011;40693;43.884;20.340;2024-02-21T05:05:18;78.13;;;50.00;;
54795;SDS011;40693;43.884;20.340;2024-02-21T05:07:44;86.63;;;55.17;;
54795;SDS011;40693;43.884;20.340;2024-02-21T05:10:10;74.03;;;47.53;;
54795;SDS011;40693;43.884;20.340;2024-02-21T05:12:36;73.20;;;47.17;;
54795;SDS011;40693;43.884;20.340;2024-02-21T05:15:02;73.95;;;46.63;;
54795;SDS011;40693;43.884;20.340;2024-02-21T05:17:28;88.93;;;56.78;;
54795;SDS011;40693;43.884;20.340;2024-02-21T05:19:54;83.80;;;57.53;;
54795;SDS011;40693;43.884;20.340;2024-02-21T05:22:20;81.75;;;55.17;;
54795;SDS011;40693;43.884;20.340;2024-02-21T05:24:45;78.95;;;54.38;;
54795;SDS011;40693;43.884;20.340;2024-02-21T05:27:11;76.50;;;50.03;;
54795;SDS011;40693;43.884;20.340;2024-02-21T05:29:37;75.80;;;50.75;;
54795;SDS011;40693;43.884;20.340;2024-02-21T05:32:03;73.90;;;48.95;;
54795;SDS011;40693;43.884;20.340;2024-02-21T05:34:29;74.90;;;45.50;;
54795;SDS011;40693;43.884;20.340;2024-02-21T05:36:54;70.85;;;47.38;;
54795;SDS011;40693;43.884;20.340;2024-02-21T05:39:20;72.53;;;45.97;;
54795;SDS011;40693;43.884;20.340;2024-02-21T05:41:48;75.88;;;46.65;;
54795;SDS011;40693;43.884;20.340;2024-02-21T05:44:15;85.10;;;54.20;;
54795;SDS011;40693;43.884;20.340;2024-02-21T05:46:41;75.97;;;46.63;;
54795;SDS011;40693;43.884;20.340;2024-02-21T05:49:07;51.42;;;35.40;;
54795;SDS011;40693;43.884;20.340;2024-02-21T05:51:34;39.70;;;27.63;;
54795;SDS011;40693;43.884;20.340;2024-02-21T05:54:00;41.55;;;25.85;;
54795;SDS011;40693;43.884;20.340;2024-02-21T05:56:26;42.85;;;25.75;;
54795;SDS011;40693;43.884;20.340;2024-02-21T05:58:53;43.83;;;27.77;;
54795;SDS011;40693;43.884;20.340;2024-02-21T06:01:19;42.70;;;25.77;;
54795;SDS011;40693;43.884;20.340;2024-02-21T06:03:46;39.10;;;24.80;;
54795;SDS011;40693;43.884;20.340;2024-02-21T06:06:12;60.97;;;35.10;;
54795;SDS011;40693;43.884;20.340;2024-02-21T06:08:39;60.88;;;37.60;;
54795;SDS011;40693;43.884;20.340;2024-02-21T06:11:05;63.58;;;38.25;;
54795;SDS011;40693;43.884;20.340;2024-02-21T06:13:37;53.83;;;31.88;;
54795;SDS011;40693;43.884;20.340;2024-02-21T06:16:06;53.38;;;32.50;;
54795;SDS011;40693;43.884;20.340;2024-02-21T06:18:33;138.27;;;84.13;;
54795;SDS011;40693;43.884;20.340;2024-02-21T06:21:00;63.72;;;41.35;;
54795;SDS011;40693;43.884;20.340;2024-02-21T06:23:26;53.47;;;36.22;;
54795;SDS011;40693;43.884;20.340;2024-02-21T06:25:52;49.92;;;30.65;;
54795;SDS011;40693;43.884;20.340;2024-02-21T06:28:17;61.70;;;37.42;;
54795;SDS011;40693;43.884;20.340;2024-02-21T06:30:43;59.70;;;38.00;;
54795;SDS011;40693;43.884;20.340;2024-02-21T06:33:09;57.20;;;36.28;;
54795;SDS011;40693;43.884;20.340;2024-02-21T06:35:35;58.47;;;38.08;;
54795;SDS011;40693;43.884;20.340;2024-02-21T06:38:00;57.47;;;37.35;;
54795;SDS011;40693;43.884;20.340;2024-02-21T06:40:26;58.45;;;38.38;;
54795;SDS011;40693;43.884;20.340;2024-02-21T06:42:52;50.25;;;33.55;;
54795;SDS011;40693;43.884;20.340;2024-02-21T06:45:18;49.78;;;33.25;;
54795;SDS011;40693;43.884;20.340;2024-02-21T06:47:43;55.15;;;33.92;;
54795;SDS011;40693;43.884;20.340;2024-02-21T06:50:09;54.83;;;33.20;;
54795;SDS011;40693;43.884;20.340;2024-02-21T06:52:35;50.53;;;31.33;;
54795;SDS011;40693;43.884;20.340;2024-02-21T06:55:01;51.60;;;33.33;;
54795;SDS011;40693;43.884;20.340;2024-02-21T06:57:30;59.45;;;36.20;;
54795;SDS011;40693;43.884;20.340;2024-02-21T06:59:56;52.88;;;35.67;;
54795;SDS011;40693;43.884;20.340;2024-02-21T07:02:22;59.55;;;35.92;;
54795;SDS011;40693;43.884;20.340;2024-02-21T07:04:47;137.30;;;85.13;;
54795;SDS011;40693;43.884;20.340;2024-02-21T07:07:13;107.38;;;67.05;;
54795;SDS011;40693;43.884;20.340;2024-02-21T07:09:39;93.82;;;62.60;;
54795;SDS011;40693;43.884;20.340;2024-02-21T07:12:05;71.57;;;47.50;;
54795;SDS011;40693;43.884;20.340;2024-02-21T07:14:35;61.88;;;41.10;;
54795;SDS011;40693;43.884;20.340;2024-02-21T07:17:01;69.28;;;45.17;;
54795;SDS011;40693;43.884;20.340;2024-02-21T07:19:27;66.63;;;43.92;;
54795;SDS011;40693;43.884;20.340;2024-02-21T07:21:52;72.18;;;46.72;;
54795;SDS011;40693;43.884;20.340;2024-02-21T07:24:18;65.93;;;42.00;;
54795;SDS011;40693;43.884;20.340;2024-02-21T07:26:44;64.45;;;43.40;;
54795;SDS011;40693;43.884;20.340;2024-02-21T07:29:10;45.03;;;30.75;;
54795;SDS011;40693;43.884;20.340;2024-02-21T07:31:42;51.42;;;32.33;;
54795;SDS011;40693;43.884;20.340;2024-02-21T07:34:08;55.15;;;38.25;;
54795;SDS011;40693;43.884;20.340;2024-02-21T07:36:35;57.53;;;39.42;;
54795;SDS011;40693;43.884;20.340;2024-02-21T07:39:02;65.97;;;45.50;;
54795;SDS011;40693;43.884;20.340;2024-02-21T07:41:29;68.40;;;44.10;;
54795;SDS011;40693;43.884;20.340;2024-02-21T07:43:56;35.60;;;26.98;;
54795;SDS011;40693;43.884;20.340;2024-02-21T07:46:22;24.77;;;16.42;;
54795;SDS011;40693;43.884;20.340;2024-02-21T07:48:47;25.63;;;16.45;;
54795;SDS011;40693;43.884;20.340;2024-02-21T07:51:13;26.90;;;19.30;;
54795;SDS011;40693;43.884;20.340;2024-02-21T07:53:39;22.95;;;16.88;;
54795;SDS011;40693;43.884;20.340;2024-02-21T07:56:10;37.35;;;23.63;;
54795;SDS011;40693;43.884;20.340;2024-02-21T07:58:40;36.38;;;22.52;;
54795;SDS011;40693;43.884;20.340;2024-02-21T08:01:06;33.75;;;23.15;;
54795;SDS011;40693;43.884;20.340;2024-02-21T08:03:32;37.42;;;24.67;;
54795;SDS011;40693;43.884;20.340;2024-02-21T08:05:58;27.70;;;17.35;;
54795;SDS011;40693;43.884;20.340;2024-02-21T08:08:24;28.33;;;18.42;;
54795;SDS011;40693;43.884;20.340;2024-02-21T08:10:50;23.80;;;16.30;;
54795;SDS011;40693;43.884;20.340;2024-02-21T08:13:15;23.65;;;17.63;;
54795;SDS011;40693;43.884;20.340;2024-02-21T08:15:41;26.05;;;19.95;;
54795;SDS011;40693;43.884;20.340;2024-02-21T08:18:07;31.00;;;21.70;;
54795;SDS011;40693;43.884;20.340;2024-02-21T08:20:33;37.85;;;26.45;;
54795;SDS011;40693;43.884;20.340;2024-02-21T08:22:59;25.08;;;15.35;;
54795;SDS011;40693;43.884;20.340;2024-02-21T08:25:25;19.40;;;13.38;;
54795;SDS011;40693;43.884;20.340;2024-02-21T08:27:51;17.05;;;11.40;;
54795;SDS011;40693;43.884;20.340;2024-02-21T08:30:19;19.35;;;13.27;;
54795;SDS011;40693;43.884;20.340;2024-02-21T08:32:45;19.52;;;13.23;;
54795;SDS011;40693;43.884;20.340;2024-02-21T08:35:11;11.73;;;9.88;;
54795;SDS011;40693;43.884;20.340;2024-02-21T08:37:37;45.90;;;28.20;;
54795;SDS011;40693;43.884;20.340;2024-02-21T08:40:03;106.45;;;69.43;;
54795;SDS011;40693;43.884;20.340;2024-02-21T08:42:34;46.97;;;31.60;;
54795;SDS011;40693;43.884;20.340;2024-02-21T08:45:02;29.08;;;18.60;;
54795;SDS011;40693;43.884;20.340;2024-02-21T08:47:28;26.73;;;17.20;;
54795;SDS011;40693;43.884;20.340;2024-02-21T08:49:54;31.90;;;20.50;;
54795;SDS011;40693;43.884;20.340;2024-02-21T08:52:20;21.45;;;14.07;;
54795;SDS011;40693;43.884;20.340;2024-02-21T08:54:45;19.50;;;14.15;;
54795;SDS011;40693;43.884;20.340;2024-02-21T08:57:11;23.63;;;15.57;;
54795;SDS011;40693;43.884;20.340;2024-02-21T08:59:39;25.85;;;15.63;;
54795;SDS011;40693;43.884;20.340;2024-02-21T09:02:05;22.13;;;15.70;;
54795;SDS011;40693;43.884;20.340;2024-02-21T09:04:32;48.20;;;28.50;;
54795;SDS011;40693;43.884;20.340;2024-02-21T09:06:58;48.40;;;27.95;;
54795;SDS011;40693;43.884;20.340;2024-02-21T09:09:24;76.30;;;45.55;;
54795;SDS011;40693;43.884;20.340;2024-02-21T09:11:50;29.10;;;20.20;;
54795;SDS011;40693;43.884;20.340;2024-02-21T09:14:16;31.17;;;19.23;;
54795;SDS011;40693;43.884;20.340;2024-02-21T09:16:42;43.75;;;31.75;;
54795;SDS011;40693;43.884;20.340;2024-02-21T09:19:09;24.23;;;18.88;;
54795;SDS011;40693;43.884;20.340;2024-02-21T09:21:36;22.42;;;16.20;;
54795;SDS011;40693;43.884;20.340;2024-02-21T09:24:04;23.00;;;16.58;;
54795;SDS011;40693;43.884;20.340;2024-02-21T09:26:30;23.63;;;15.50;;
54795;SDS011;40693;43.884;20.340;2024-02-21T09:28:56;22.60;;;16.52;;
54795;SDS011;40693;43.884;20.340;2024-02-21T09:31:22;28.98;;;20.05;;
54795;SDS011;40693;43.884;20.340;2024-02-21T09:33:48;24.13;;;15.25;;
54795;SDS011;40693;43.884;20.340;2024-02-21T09:36:13;23.17;;;15.93;;
54795;SDS011;40693;43.884;20.340;2024-02-21T09:38:40;19.92;;;13.75;;
54795;SDS011;40693;43.884;20.340;2024-02-21T09:41:16;24.20;;;16.42;;
54795;SDS011;40693;43.884;20.340;2024-02-21T09:43:44;17.38;;;14.15;;
54795;SDS011;40693;43.884;20.340;2024-02-21T09:46:17;19.65;;;15.52;;
54795;SDS011;40693;43.884;20.340;2024-02-21T09:51:31;17.52;;;12.95;;
54795;SDS011;40693;43.884;20.340;2024-02-21T09:53:59;25.08;;;14.07;;
54795;SDS011;40693;43.884;20.340;2024-02-21T09:56:25;27.45;;;18.55;;
54795;SDS011;40693;43.884;20.340;2024-02-21T09:58:51;22.10;;;14.73;;
54795;SDS011;40693;43.884;20.340;2024-02-21T10:01:17;18.35;;;11.27;;
54795;SDS011;40693;43.884;20.340;2024-02-21T10:03:43;17.02;;;12.02;;
54795;SDS011;40693;43.884;20.340;2024-02-21T10:06:09;34.22;;;20.60;;
54795;SDS011;40693;43.884;20.340;2024-02-21T10:08:35;24.95;;;18.52;;
54795;SDS011;40693;43.884;20.340;2024-02-21T10:11:00;24.98;;;18.35;;
54795;SDS011;40693;43.884;20.340;2024-02-21T10:13:28;16.60;;;13.98;;
54795;SDS011;40693;43.884;20.340;2024-02-21T10:16:01;15.15;;;11.00;;
54795;SDS011;40693;43.884;20.340;2024-02-21T10:18:27;16.33;;;12.23;;
54795;SDS011;40693;43.884;20.340;2024-02-21T10:21:03;15.75;;;10.95;;
54795;SDS011;40693;43.884;20.340;2024-02-21T10:23:40;15.27;;;12.18;;
54795;SDS011;40693;43.884;20.340;2024-02-21T10:26:15;19.80;;;15.32;;
54795;SDS011;40693;43.884;20.340;2024-02-21T10:28:42;22.85;;;17.90;;
54795;SDS011;40693;43.884;20.340;2024-02-21T10:31:10;20.98;;;14.63;;
54795;SDS011;40693;43.884;20.340;2024-02-21T10:33:40;22.88;;;16.38;;
54795;SDS011;40693;43.884;20.340;2024-02-21T10:36:09;21.20;;;14.63;;
54795;SDS011;40693;43.884;20.340;2024-02-21T10:38:36;29.85;;;18.70;;
54795;SDS011;40693;43.884;20.340;2024-02-21T10:41:04;17.48;;;13.43;;
54795;SDS011;40693;43.884;20.340;2024-02-21T10:43:33;13.48;;;10.00;;
54795;SDS011;40693;43.884;20.340;2024-02-21T10:46:05;33.03;;;20.08;;
54795;SDS011;40693;43.884;20.340;2024-02-21T10:48:42;25.75;;;15.27;;
54795;SDS011;40693;43.884;20.340;2024-02-21T10:51:19;30.38;;;21.35;;
54795;SDS011;40693;43.884;20.340;2024-02-21T10:53:55;22.63;;;13.38;;
54795;SDS011;40693;43.884;20.340;2024-02-21T10:56:39;14.52;;;9.15;;
54795;SDS011;40693;43.884;20.340;2024-02-21T10:59:07;14.60;;;8.98;;
54795;SDS011;40693;43.884;20.340;2024-02-21T11:01:33;12.65;;;8.27;;
54795;SDS011;40693;43.884;20.340;2024-02-21T11:04:03;14.52;;;11.05;;
54795;SDS011;40693;43.884;20.340;2024-02-21T11:06:30;12.35;;;9.27;;
54795;SDS011;40693;43.884;20.340;2024-02-21T11:08:59;12.68;;;9.98;;
54795;SDS011;40693;43.884;20.340;2024-02-21T11:11:26;11.77;;;8.40;;
54795;SDS011;40693;43.884;20.340;2024-02-21T11:13:52;13.18;;;9.30;;
54795;SDS011;40693;43.884;20.340;2024-02-21T11:16:21;21.13;;;12.65;;
54795;SDS011;40693;43.884;20.340;2024-02-21T11:18:48;10.77;;;6.82;;
54795;SDS011;40693;43.884;20.340;2024-02-21T11:21:14;9.27;;;7.03;;
54795;SDS011;40693;43.884;20.340;2024-02-21T11:23:40;9.77;;;6.70;;
54795;SDS011;40693;43.884;20.340;2024-02-21T11:26:07;8.70;;;6.70;;
54795;SDS011;40693;43.884;20.340;2024-02-21T11:28:33;11.82;;;8.23;;
54795;SDS011;40693;43.884;20.340;2024-02-21T11:31:08;10.95;;;6.45;;
54795;SDS011;40693;43.884;20.340;2024-02-21T11:33:40;5.75;;;4.25;;
54795;SDS011;40693;43.884;20.340;2024-02-21T11:36:08;7.82;;;6.05;;
54795;SDS011;40693;43.884;20.340;2024-02-21T11:38:34;5.63;;;4.63;;
54795;SDS011;40693;43.884;20.340;2024-02-21T11:41:00;5.43;;;4.13;;
54795;SDS011;40693;43.884;20.340;2024-02-21T11:43:26;7.53;;;4.15;;
54795;SDS011;40693;43.884;20.340;2024-02-21T11:45:59;6.03;;;5.07;;
54795;SDS011;40693;43.884;20.340;2024-02-21T11:48:26;10.00;;;5.70;;
54795;SDS011;40693;43.884;20.340;2024-02-21T11:50:55;7.97;;;6.18;;
54795;SDS011;40693;43.884;20.340;2024-02-21T11:53:22;11.77;;;8.05;;
54795;SDS011;40693;43.884;20.340;2024-02-21T11:55:48;9.23;;;6.63;;
54795;SDS011;40693;43.884;20.340;2024-02-21T11:58:15;8.43;;;6.38;;
54795;SDS011;40693;43.884;20.340;2024-02-21T12:00:41;9.18;;;6.13;;
54795;SDS011;40693;43.884;20.340;2024-02-21T12:03:07;15.13;;;7.80;;
54795;SDS011;40693;43.884;20.340;2024-02-21T12:05:33;12.65;;;8.45;;
54795;SDS011;40693;43.884;20.340;2024-02-21T12:07:59;13.45;;;7.47;;
54795;SDS011;40693;43.884;20.340;2024-02-21T12:10:26;11.57;;;7.50;;
54795;SDS011;40693;43.884;20.340;2024-02-21T12:13:05;10.73;;;7.75;;
54795;SDS011;40693;43.884;20.340;2024-02-21T12:15:34;10.52;;;7.90;;
54795;SDS011;40693;43.884;20.340;2024-02-21T12:18:00;11.60;;;9.07;;
54795;SDS011;40693;43.884;20.340;2024-02-21T12:20:26;13.70;;;9.93;;
54795;SDS011;40693;43.884;20.340;2024-02-21T12:22:52;12.77;;;8.88;;
54795;SDS011;40693;43.884;20.340;2024-02-21T12:25:22;5.53;;;4.38;;
54795;SDS011;40693;43.884;20.340;2024-02-21T12:27:48;5.28;;;3.88;;
54795;SDS011;40693;43.884;20.340;2024-02-21T12:30:14;4.05;;;3.10;;
54795;SDS011;40693;43.884;20.340;2024-02-21T12:32:41;6.13;;;4.35;;
54795;SDS011;40693;43.884;20.340;2024-02-21T12:35:06;11.63;;;7.53;;
54795;SDS011;40693;43.884;20.340;2024-02-21T12:37:33;13.95;;;11.27;;
54795;SDS011;40693;43.884;20.340;2024-02-21T12:39:59;9.38;;;6.32;;
54795;SDS011;40693;43.884;20.340;2024-02-21T12:42:25;12.73;;;9.38;;
54795;SDS011;40693;43.884;20.340;2024-02-21T12:44:51;13.50;;;9.30;;
54795;SDS011;40693;43.884;20.340;2024-02-21T12:47:18;17.15;;;11.20;;
54795;SDS011;40693;43.884;20.340;2024-02-21T12:49:45;14.77;;;10.60;;
54795;SDS011;40693;43.884;20.340;2024-02-21T12:52:11;25.25;;;12.95;;
54795;SDS011;40693;43.884;20.340;2024-02-21T12:54:38;23.77;;;12.48;;
54795;SDS011;40693;43.884;20.340;2024-02-21T12:57:04;15.32;;;12.25;;
54795;SDS011;40693;43.884;20.340;2024-02-21T12:59:30;16.75;;;11.25;;
54795;SDS011;40693;43.884;20.340;2024-02-21T13:01:55;17.65;;;12.63;;
54795;SDS011;40693;43.884;20.340;2024-02-21T13:04:21;18.98;;;12.98;;
54795;SDS011;40693;43.884;20.340;2024-02-21T13:06:48;11.38;;;8.60;;
54795;SDS011;40693;43.884;20.340;2024-02-21T13:09:14;14.18;;;8.48;;
54795;SDS011;40693;43.884;20.340;2024-02-21T13:11:40;9.10;;;6.88;;
54795;SDS011;40693;43.884;20.340;2024-02-21T13:14:07;11.10;;;7.65;;
54795;SDS011;40693;43.884;20.340;2024-02-21T13:16:32;19.92;;;11.35;;
54795;SDS011;40693;43.884;20.340;2024-02-21T13:19:04;15.20;;;10.05;;
54795;SDS011;40693;43.884;20.340;2024-02-21T13:21:33;13.70;;;8.55;;
54795;SDS011;40693;43.884;20.340;2024-02-21T13:24:00;13.82;;;8.32;;
54795;SDS011;40693;43.884;20.340;2024-02-21T13:26:26;12.38;;;7.78;;
54795;SDS011;40693;43.884;20.340;2024-02-21T13:28:52;19.95;;;12.65;;
54795;SDS011;40693;43.884;20.340;2024-02-21T13:31:18;11.32;;;8.13;;
54795;SDS011;40693;43.884;20.340;2024-02-21T13:33:44;15.07;;;10.65;;
54795;SDS011;40693;43.884;20.340;2024-02-21T13:36:10;19.75;;;12.40;;
54795;SDS011;40693;43.884;20.340;2024-02-21T13:38:37;10.38;;;7.35;;
54795;SDS011;40693;43.884;20.340;2024-02-21T13:41:04;11.27;;;6.00;;
54795;SDS011;40693;43.884;20.340;2024-02-21T13:43:31;23.45;;;11.63;;
54795;SDS011;40693;43.884;20.340;2024-02-21T13:46:01;9.60;;;5.85;;
54795;SDS011;40693;43.884;20.340;2024-02-21T13:48:30;8.95;;;7.28;;
54795;SDS011;40693;43.884;20.340;2024-02-21T13:50:56;7.53;;;4.60;;
54795;SDS011;40693;43.884;20.340;2024-02-21T13:53:22;11.02;;;5.70;;
54795;SDS011;40693;43.884;20.340;2024-02-21T13:55:48;9.10;;;4.72;;
54795;SDS011;40693;43.884;20.340;2024-02-21T13:58:15;12.02;;;6.55;;
54795;SDS011;40693;43.884;20.340;2024-02-21T14:00:42;10.25;;;5.68;;
54795;SDS011;40693;43.884;20.340;2024-02-21T14:03:08;10.98;;;7.82;;
54795;SDS011;40693;43.884;20.340;2024-02-21T14:05:34;12.88;;;7.80;;
54795;SDS011;40693;43.884;20.340;2024-02-21T14:08:00;8.23;;;6.72;;
54795;SDS011;40693;43.884;20.340;2024-02-21T14:10:26;12.35;;;7.97;;